createdAt,value
2023-11-12T00:01:36.457Z,10.55
2023-11-12T00:06:29.527Z,10.51
2023-11-12T00:11:23.934Z,10.48
2023-11-12T00:16:18.675Z,10.42
2023-11-12T00:21:15.231Z,10.42
2023-11-12T00:26:09.056Z,10.38
2023-11-12T00:31:02.672Z,10.39
2023-11-12T00:35:57.451Z,10.41
2023-11-12T00:40:50.706Z,10.41
2023-11-12T00:45:43.710Z,10.40
2023-11-12T00:50:36.849Z,10.44
2023-11-12T00:55:31.244Z,10.47
2023-11-12T01:00:25.305Z,10.50
2023-11-12T01:05:18.822Z,10.55
2023-11-12T01:10:12.315Z,10.58
2023-11-12T01:15:07.576Z,10.58
2023-11-12T01:20:01.735Z,10.55
2023-11-12T01:24:54.818Z,10.53
2023-11-12T01:29:47.801Z,10.50
2023-11-12T01:34:42.180Z,10.50
2023-11-12T01:39:35.170Z,10.49
2023-11-12T01:44:28.449Z,10.47
2023-11-12T01:49:22.430Z,10.50
2023-11-12T01:54:17.996Z,10.48
2023-11-12T01:59:13.073Z,10.48
2023-11-12T02:04:09.844Z,10.46
2023-11-12T02:09:03.028Z,10.45
2023-11-12T02:13:57.640Z,10.45
2023-11-12T02:18:50.721Z,10.47
2023-11-12T02:23:45.210Z,10.47
2023-11-12T02:28:40.011Z,10.46
2023-11-12T02:33:33.564Z,10.48
2023-11-12T02:38:26.797Z,10.24
2023-11-12T02:43:21.381Z,10.49
2023-11-12T02:48:14.564Z,10.52
2023-11-12T02:53:08.841Z,10.56
2023-11-12T02:58:02.288Z,10.60
2023-11-12T03:02:59.498Z,10.61
2023-11-12T03:07:52.816Z,10.64
2023-11-12T03:12:45.893Z,10.65
2023-11-12T03:17:39.159Z,10.70
2023-11-12T03:22:34.939Z,10.72
2023-11-12T03:27:28.194Z,10.72
2023-11-12T03:32:22.734Z,10.77
2023-11-12T03:37:15.712Z,10.77
2023-11-12T03:42:12.802Z,10.83
2023-11-12T03:47:06.347Z,10.84
2023-11-12T03:51:59.936Z,10.88
2023-11-12T03:56:53.006Z,10.88
2023-11-12T04:01:47.991Z,10.87
2023-11-12T04:06:41.074Z,10.92
2023-11-12T04:11:36.580Z,10.96
2023-11-12T04:16:29.653Z,11.04
2023-11-12T04:21:24.144Z,11.09
2023-11-12T04:26:17.592Z,11.11
2023-11-12T04:31:10.737Z,11.12
2023-11-12T04:36:03.858Z,11.09
2023-11-12T04:40:58.640Z,11.08
2023-11-12T04:45:51.773Z,11.04
2023-11-12T04:50:44.849Z,11.00
2023-11-12T04:55:38.123Z,10.99
2023-11-12T05:00:32.684Z,10.98
2023-11-12T05:05:25.702Z,10.97
2023-11-12T05:10:18.876Z,10.99
2023-11-12T05:15:12.089Z,11.01
2023-11-12T05:20:07.106Z,11.03
2023-11-12T05:25:00.120Z,11.03
2023-11-12T05:29:53.967Z,11.03
2023-11-12T05:34:47.049Z,11.05
2023-11-12T05:39:41.682Z,11.02
2023-11-12T05:44:34.722Z,10.98
2023-11-12T05:49:27.808Z,10.92
2023-11-12T05:54:20.908Z,10.84
2023-11-12T05:59:15.403Z,10.79
2023-11-12T06:04:08.642Z,10.79
2023-11-12T06:09:03.528Z,10.80
2023-11-12T06:13:56.640Z,10.85
2023-11-12T06:18:51.176Z,10.92
2023-11-12T06:23:45.749Z,10.99
2023-11-12T06:28:38.865Z,11.06
2023-11-12T06:33:31.967Z,11.17
2023-11-12T06:38:26.804Z,11.29
2023-11-12T06:43:19.752Z,11.36
2023-11-12T06:48:12.761Z,11.44
2023-11-12T06:53:05.734Z,11.52
2023-11-12T06:58:00.321Z,11.61
2023-11-12T07:02:55.442Z,11.75
2023-11-12T07:07:48.411Z,11.89
2023-11-12T07:12:41.525Z,12.02
2023-11-12T07:17:36.968Z,12.16
2023-11-12T07:22:32.048Z,12.27
2023-11-12T07:27:25.206Z,12.40
2023-11-12T07:32:18.233Z,12.50
2023-11-12T07:37:12.930Z,12.57
2023-11-12T07:42:06.202Z,12.66
2023-11-12T07:46:59.270Z,12.72
2023-11-12T07:51:53.214Z,12.79
2023-11-12T07:56:47.951Z,12.84
2023-11-12T08:01:41.047Z,12.92
2023-11-12T08:06:34.117Z,13.05
2023-11-12T08:11:29.151Z,13.02
2023-11-12T08:16:24.186Z,13.19
2023-11-12T08:21:17.272Z,13.23
2023-11-12T08:26:10.248Z,13.30
2023-11-12T08:31:04.555Z,13.39
2023-11-12T08:35:59.124Z,13.41
2023-11-12T08:40:52.135Z,13.51
2023-11-12T08:45:45.225Z,13.66
2023-11-12T08:50:38.237Z,13.75
2023-11-12T08:55:33.009Z,14.02
2023-11-12T09:00:26.060Z,14.43
2023-11-12T09:05:20.051Z,14.78
2023-11-12T09:10:13.136Z,14.74
2023-11-12T09:15:10.758Z,14.79
2023-11-12T09:20:05.231Z,14.79
2023-11-12T09:25:08.782Z,14.90
2023-11-12T09:30:04.986Z,15.41
2023-11-12T09:34:59.384Z,15.73
2023-11-12T09:39:54.127Z,15.67
2023-11-12T09:44:49.978Z,15.54
2023-11-12T09:49:43.676Z,15.51
2023-11-12T09:54:39.529Z,15.47
2023-11-12T09:59:32.586Z,15.37
2023-11-12T10:04:25.713Z,15.29
2023-11-12T10:09:27.756Z,15.29
2023-11-12T10:14:25.376Z,15.34
2023-11-12T10:19:18.554Z,15.36
2023-11-12T10:24:11.674Z,15.34
2023-11-12T10:29:07.352Z,15.25
2023-11-12T10:34:02.222Z,15.18
2023-11-12T10:38:55.436Z,15.12
2023-11-12T10:43:58.129Z,15.04
2023-11-12T10:48:53.614Z,14.91
2023-11-12T10:53:50.722Z,14.79
2023-11-12T10:58:47.467Z,14.82
2023-11-12T11:03:40.561Z,14.89
2023-11-12T11:08:35.827Z,14.95
2023-11-12T11:13:30.688Z,14.95
2023-11-12T11:18:42.392Z,14.96
2023-11-12T11:23:42.034Z,15.05
2023-11-12T11:28:36.482Z,15.04
2023-11-12T11:33:32.174Z,14.98
2023-11-12T11:38:26.207Z,14.96
2023-11-12T11:43:32.659Z,14.90
2023-11-12T11:48:27.441Z,14.82
2023-11-12T11:53:20.961Z,14.79
2023-11-12T11:58:15.660Z,14.82
2023-11-12T12:03:18.560Z,14.84
2023-11-12T12:08:14.826Z,14.80
2023-11-12T12:13:11.773Z,14.78
2023-11-12T12:18:18.326Z,14.77
2023-11-12T12:23:13.516Z,14.77
2023-11-12T12:28:07.955Z,14.76
2023-11-12T12:33:15.399Z,14.70
2023-11-12T12:38:08.636Z,14.69
2023-11-12T12:43:08.318Z,14.67
2023-11-12T12:48:01.381Z,14.64
2023-11-12T12:53:13.879Z,14.63
2023-11-12T12:58:08.419Z,14.62
2023-11-12T13:03:02.134Z,14.67
2023-11-12T13:07:56.078Z,14.67
2023-11-12T13:12:51.672Z,14.64
2023-11-12T13:17:46.794Z,14.68
2023-11-12T13:22:41.049Z,14.69
2023-11-12T13:27:35.049Z,14.64
2023-11-12T13:32:29.590Z,14.52
2023-11-12T13:37:24.299Z,14.45
2023-11-12T13:42:18.201Z,14.42
2023-11-12T13:47:11.187Z,14.38
2023-11-12T13:52:07.233Z,14.25
2023-11-12T13:57:01.728Z,14.12
2023-11-12T14:01:55.276Z,14.03
2023-11-12T14:07:18.140Z,13.96
2023-11-12T14:12:41.219Z,13.92
2023-11-12T14:18:02.428Z,13.88
2023-11-12T14:28:28.512Z,13.69
2023-11-12T14:33:30.792Z,13.60
2023-11-12T14:38:23.991Z,13.49
2023-11-12T14:43:18.427Z,13.30
2023-11-12T14:48:14.161Z,13.29
2023-11-12T14:53:09.719Z,13.21
2023-11-12T14:58:02.919Z,13.15
2023-11-12T15:02:58.929Z,13.08
2023-11-12T15:07:52.317Z,13.05
2023-11-12T15:12:46.124Z,13.00
2023-11-12T15:22:58.669Z,12.87
2023-11-12T15:27:52.474Z,12.76
2023-11-12T15:32:54.268Z,12.67
2023-11-12T15:37:47.378Z,12.58
2023-11-12T15:42:44.072Z,12.52
2023-11-12T15:47:39.929Z,12.41
2023-11-12T15:52:33.071Z,12.33
2023-11-12T15:57:26.437Z,12.31
2023-11-12T16:02:20.882Z,12.27
2023-11-12T16:07:17.256Z,12.24
2023-11-12T16:12:10.411Z,12.16
2023-11-12T16:17:03.345Z,12.12
2023-11-12T16:21:57.820Z,12.11
2023-11-12T16:26:56.429Z,12.08
2023-11-12T16:31:51.416Z,11.99
2023-11-12T16:36:47.137Z,11.90
2023-11-12T16:41:47.486Z,11.87
2023-11-12T16:46:44.972Z,11.86
2023-11-12T16:51:40.269Z,11.83
2023-11-12T16:56:33.309Z,11.82
2023-11-12T17:01:30.616Z,11.81
2023-11-12T17:06:23.737Z,11.79
2023-11-12T17:11:26.309Z,11.79
2023-11-12T17:16:20.224Z,11.79
2023-11-12T17:21:15.048Z,11.72
2023-11-12T17:26:08.242Z,11.65
2023-11-12T17:31:01.366Z,11.60
2023-11-12T17:35:54.545Z,11.56
2023-11-12T17:40:49.134Z,11.54
2023-11-12T17:45:42.742Z,11.52
2023-11-12T17:50:36.259Z,11.47
2023-11-12T17:55:29.293Z,11.37
2023-11-12T18:00:24.268Z,11.27
2023-11-12T18:05:17.644Z,11.17
2023-11-12T18:10:12.709Z,11.11
2023-11-12T18:15:08.359Z,11.13
2023-11-12T18:20:04.417Z,11.17
2023-11-12T18:24:59.698Z,11.23
2023-11-12T18:29:55.231Z,11.30
2023-11-12T18:34:49.326Z,11.36
2023-11-12T18:39:46.310Z,11.38
2023-11-12T18:44:39.897Z,11.33
2023-11-12T18:49:36.439Z,11.30
2023-11-12T18:54:32.914Z,11.38
2023-11-12T18:59:31.627Z,11.49
2023-11-12T19:04:28.150Z,11.43
2023-11-12T19:09:22.078Z,11.34
2023-11-12T19:14:17.990Z,11.21
2023-11-12T19:19:16.425Z,11.25
2023-11-12T19:24:11.635Z,11.28
2023-11-12T19:29:05.282Z,11.38
2023-11-12T19:34:02.572Z,11.52
2023-11-12T19:38:57.930Z,11.56
2023-11-12T19:44:03.772Z,11.48
2023-11-12T19:49:00.559Z,11.40
2023-11-12T19:53:54.619Z,11.27
2023-11-12T19:59:02.076Z,11.09
2023-11-12T20:03:57.035Z,11.02
2023-11-12T20:08:54.894Z,10.94
2023-11-12T20:13:53.499Z,10.92
2023-11-12T20:18:47.935Z,10.93
2023-11-12T20:23:41.396Z,10.88
2023-11-12T20:28:34.858Z,10.81
2023-11-12T20:33:28.049Z,10.77
2023-11-12T20:38:22.689Z,10.70
2023-11-12T20:43:15.768Z,10.61
2023-11-12T20:48:08.956Z,10.49
2023-11-12T20:53:01.988Z,10.39
2023-11-12T20:57:56.372Z,10.34
2023-11-12T21:02:50.376Z,10.26
2023-11-12T21:07:43.578Z,10.28
2023-11-12T21:12:36.620Z,10.33
2023-11-12T21:17:32.405Z,10.51
2023-11-12T21:22:25.430Z,10.76
2023-11-12T21:27:18.480Z,10.97
2023-11-12T21:32:11.611Z,11.12
2023-11-12T21:37:06.894Z,11.20
2023-11-12T21:42:01.323Z,11.24
2023-11-12T21:46:54.430Z,11.22
2023-11-12T21:51:47.478Z,11.07
2023-11-12T21:56:41.883Z,11.02
2023-11-12T22:01:34.836Z,11.04
2023-11-12T22:06:28.016Z,11.06
2023-11-12T22:11:21.142Z,11.06
2023-11-12T22:16:16.605Z,11.11
2023-11-12T22:21:09.751Z,11.14
2023-11-12T22:26:03.776Z,11.15
2023-11-12T22:30:56.775Z,11.17
2023-11-12T22:35:51.272Z,11.23
2023-11-12T22:40:44.395Z,11.24
2023-11-12T22:45:38.975Z,11.21
2023-11-12T22:50:31.915Z,11.13
2023-11-12T22:55:27.188Z,11.02
2023-11-12T23:05:38.982Z,10.73
2023-11-12T23:10:39.383Z,10.61
2023-11-12T23:15:34.706Z,10.53
2023-11-12T23:20:27.894Z,10.47
2023-11-12T23:25:22.431Z,10.42
2023-11-12T23:30:15.691Z,10.31
2023-11-12T23:35:09.733Z,10.28
2023-11-12T23:40:02.836Z,10.23
2023-11-12T23:44:57.429Z,10.17
2023-11-12T23:49:50.549Z,10.14
2023-11-12T23:54:43.846Z,10.09
2023-11-12T23:59:36.818Z,10.06
